Time;durP1;ratioP1;P1;durP2;ratioP2;P2;SDS_P1;SDS_P2;PMS_P1;PMS_P2;Temp;Humidity;BMP_temperature;BMP_pressure;BME280_temperature;BME280_humidity;BME280_pressure;Samples;Min_cycle;Max_cycle;Signal;HPM_P1;HPM_P2
2021/12/18 00:00:19;;;;;;;20.73;14.97;;;4.90;99.90;;;;;;5015770;28;20216;-89
2021/12/18 00:02:54;;;;;;;20.53;15.37;;;4.90;99.90;;;;;;5032819;28;20263;-89
2021/12/18 00:05:20;;;;;;;21.60;16.00;;;4.80;99.90;;;;;;5016701;28;20180;-89
2021/12/18 00:07:46;;;;;;;20.53;14.77;;;4.70;99.90;;;;;;5015808;28;20668;-89
2021/12/18 00:10:12;;;;;;;21.17;15.63;;;4.70;99.90;;;;;;5015934;28;20198;-89
2021/12/18 00:12:41;;;;;;;22.43;15.90;;;4.60;99.90;;;;;;5016233;28;20589;-89
2021/12/18 00:15:07;;;;;;;20.20;14.77;;;4.60;99.90;;;;;;5016319;28;20365;-89
2021/12/18 00:17:33;;;;;;;20.43;16.07;;;4.50;99.90;;;;;;5032670;28;20255;-89
2021/12/18 00:19:59;;;;;;;20.80;15.80;;;4.50;99.90;;;;;;5015958;28;20281;-89
2021/12/18 00:22:24;;;;;;;21.50;15.57;;;4.50;99.90;;;;;;5016361;28;20176;-89
2021/12/18 00:24:50;;;;;;;21.80;16.40;;;4.50;99.90;;;;;;5032887;28;20183;-89
2021/12/18 00:27:16;;;;;;;23.73;16.47;;;4.50;99.90;;;;;;5015951;28;20676;-89
2021/12/18 00:29:42;;;;;;;22.73;17.07;;;4.50;99.90;;;;;;5017001;28;20209;-89
2021/12/18 00:32:08;;;;;;;21.43;16.27;;;4.50;99.90;;;;;;5019888;28;20238;-89
2021/12/18 00:34:34;;;;;;;21.07;15.33;;;4.50;99.90;;;;;;5020015;28;20175;-89
2021/12/18 00:37:00;;;;;;;20.47;15.67;;;4.50;99.90;;;;;;5020103;28;20171;-89
2021/12/18 00:39:29;;;;;;;20.87;15.57;;;4.60;99.90;;;;;;5019696;28;20192;-89
2021/12/18 00:42:19;;;;;;;20.37;15.67;;;4.60;99.90;;;;;;5019308;28;20187;-89
2021/12/18 00:44:45;;;;;;;22.83;15.87;;;4.60;99.90;;;;;;5019853;28;20168;-89
2021/12/18 00:47:11;;;;;;;20.80;15.17;;;4.60;99.90;;;;;;5019904;28;20192;-89
2021/12/18 00:49:37;;;;;;;23.23;16.70;;;4.60;99.90;;;;;;5019492;28;20289;-89
2021/12/18 00:52:04;;;;;;;20.13;15.07;;;4.60;99.90;;;;;;5019512;28;20265;-89
2021/12/18 00:54:31;;;;;;;21.17;15.87;;;4.50;99.90;;;;;;5019655;28;20181;-89
2021/12/18 00:56:57;;;;;;;22.23;16.23;;;4.50;99.90;;;;;;5019967;28;20274;-89
2021/12/18 00:59:23;;;;;;;19.53;14.87;;;4.50;99.90;;;;;;5019419;28;20656;-89
2021/12/18 01:01:49;;;;;;;24.73;16.87;;;4.60;99.90;;;;;;5019741;28;20263;-89
2021/12/18 01:04:15;;;;;;;19.67;15.37;;;4.60;99.90;;;;;;5019751;28;20179;-89
2021/12/18 01:06:41;;;;;;;21.03;15.43;;;4.60;99.90;;;;;;5019098;28;20629;-89
2021/12/18 01:09:07;;;;;;;22.33;16.10;;;4.60;99.90;;;;;;5018859;28;20220;-89
2021/12/18 01:11:45;;;;;;;24.07;16.63;;;4.60;99.90;;;;;;5015228;28;20176;-89
2021/12/18 01:25:08;;;;;;;21.97;15.83;;;4.60;99.90;;;;;;5035272;28;20188;-89
2021/12/18 01:27:35;;;;;;;21.80;16.13;;;4.60;99.90;;;;;;5019319;28;20302;-89
2021/12/18 01:30:03;;;;;;;22.93;17.13;;;4.60;99.90;;;;;;5018521;28;20201;-89
2021/12/18 01:32:30;;;;;;;24.30;17.07;;;4.50;99.90;;;;;;5018729;28;20185;-89
2021/12/18 01:34:55;;;;;;;23.10;17.03;;;4.50;99.90;;;;;;5018895;28;20184;-89
2021/12/18 01:37:21;;;;;;;24.67;17.57;;;4.50;99.90;;;;;;5018665;28;20187;-89
2021/12/18 01:39:48;;;;;;;25.33;18.33;;;4.50;99.90;;;;;;5018125;28;20194;-89
2021/12/18 01:52:53;;;;;;;24.97;17.90;;;4.50;99.90;;;;;;5031571;28;20174;-89
2021/12/18 01:55:21;;;;;;;24.47;17.17;;;4.50;99.90;;;;;;5015132;28;20186;-89
2021/12/18 01:57:47;;;;;;;26.67;17.97;;;4.50;99.90;;;;;;5014653;28;20245;-89
2021/12/18 02:00:19;;;;;;;24.43;17.90;;;4.50;99.90;;;;;;5014922;28;20195;-89
2021/12/18 02:02:45;;;;;;;23.03;17.23;;;4.50;99.90;;;;;;5014727;28;20181;-89
2021/12/18 02:05:11;;;;;;;23.83;18.20;;;4.50;99.90;;;;;;5014638;28;20208;-89
2021/12/18 02:07:40;;;;;;;22.07;16.80;;;4.50;99.90;;;;;;5014982;28;20212;-89
2021/12/18 02:10:10;;;;;;;26.53;18.93;;;4.50;99.90;;;;;;5014637;28;20204;-89
2021/12/18 02:12:54;;;;;;;22.97;17.10;;;4.50;99.90;;;;;;5015048;28;20205;-89
2021/12/18 02:21:06;;;;;;;25.10;17.77;;;4.40;99.90;;;;;;5031018;28;20707;-89
2021/12/18 02:23:34;;;;;;;24.20;17.07;;;4.40;99.90;;;;;;5014732;28;20182;-89
2021/12/18 02:26:00;;;;;;;26.57;18.27;;;4.40;99.90;;;;;;5014014;28;20235;-89
2021/12/18 02:28:27;;;;;;;27.73;18.40;;;4.40;99.90;;;;;;5014074;28;20244;-88
2021/12/18 02:30:55;;;;;;;24.70;18.47;;;4.40;99.90;;;;;;5014233;28;20341;-89
2021/12/18 02:33:22;;;;;;;23.27;17.20;;;4.40;99.90;;;;;;5014406;28;20184;-89
2021/12/18 02:35:51;;;;;;;25.53;18.30;;;4.40;99.90;;;;;;5014553;28;20231;-89
2021/12/18 02:38:28;;;;;;;24.37;18.10;;;4.30;99.90;;;;;;5014007;28;20193;-88
2021/12/18 02:43:41;;;;;;;24.77;17.43;;;4.40;99.90;;;;;;5030820;28;20171;-89
2021/12/18 02:46:09;;;;;;;25.00;17.73;;;4.40;99.90;;;;;;5014161;28;20183;-89
2021/12/18 02:48:38;;;;;;;26.27;18.37;;;4.30;99.90;;;;;;5013677;28;20298;-88
2021/12/18 02:51:06;;;;;;;23.60;17.50;;;4.30;99.90;;;;;;5014217;28;20620;-89
2021/12/18 02:53:34;;;;;;;25.77;18.10;;;4.30;99.90;;;;;;4997251;28;20177;-89
2021/12/18 02:56:04;;;;;;;24.70;17.20;;;4.30;99.90;;;;;;5014270;28;20180;-89
2021/12/18 02:58:41;;;;;;;25.70;17.63;;;4.30;99.90;;;;;;5016702;28;20237;-88
2021/12/18 03:01:09;;;;;;;24.00;16.73;;;4.30;99.90;;;;;;5017017;28;20201;-89
2021/12/18 03:03:38;;;;;;;26.27;18.77;;;4.20;99.90;;;;;;5016834;28;20189;-89
2021/12/18 03:08:47;;;;;;;24.70;17.80;;;4.20;99.90;;;;;;5032902;28;20243;-88
2021/12/18 03:25:24;;;;;;;27.03;17.80;;;4.10;99.90;;;;;;5033234;28;20198;-89
2021/12/18 03:27:51;;;;;;;26.80;18.57;;;4.10;99.90;;;;;;5016903;28;20203;-89
2021/12/18 03:30:18;;;;;;;28.17;19.90;;;4.10;99.90;;;;;;5016265;28;20203;-89
2021/12/18 03:32:44;;;;;;;26.20;18.27;;;4.10;99.90;;;;;;5016770;28;20217;-88
2021/12/18 03:35:11;;;;;;;26.23;18.27;;;4.00;99.90;;;;;;5016494;28;20701;-89
2021/12/18 03:37:37;;;;;;;27.03;19.00;;;4.00;99.90;;;;;;5016568;28;20179;-89
2021/12/18 03:40:07;;;;;;;27.00;18.70;;;4.00;99.90;;;;;;5016493;28;20253;-89
2021/12/18 03:42:33;;;;;;;26.53;18.57;;;4.00;99.90;;;;;;5016511;28;20195;-89
2021/12/18 03:44:59;;;;;;;25.43;17.83;;;4.00;99.90;;;;;;5016598;28;20209;-89
2021/12/18 03:47:25;;;;;;;29.93;19.30;;;4.00;99.90;;;;;;5015751;28;20202;-89
2021/12/18 03:49:51;;;;;;;26.27;17.83;;;4.10;99.90;;;;;;5015826;28;20205;-88
2021/12/18 03:52:17;;;;;;;30.37;19.27;;;4.10;99.90;;;;;;5016609;28;20183;-89
2021/12/18 03:54:43;;;;;;;27.63;18.03;;;4.10;99.90;;;;;;5016086;28;20174;-89
2021/12/18 03:57:09;;;;;;;29.43;18.70;;;4.10;99.90;;;;;;5015853;28;20179;-89
2021/12/18 03:59:35;;;;;;;27.67;18.33;;;4.10;99.90;;;;;;5016153;28;20229;-89
2021/12/18 04:02:01;;;;;;;27.27;18.77;;;4.00;99.90;;;;;;5016333;28;20246;-89
2021/12/18 04:04:51;;;;;;;29.57;19.00;;;4.00;99.90;;;;;;5014708;28;20767;-88
2021/12/18 04:07:17;;;;;;;31.03;19.87;;;4.00;99.90;;;;;;5015931;28;20229;-90
2021/12/18 04:09:43;;;;;;;29.37;19.97;;;4.00;99.90;;;;;;5015853;28;20209;-89
2021/12/18 04:12:09;;;;;;;29.20;19.50;;;4.00;99.90;;;;;;5015825;28;20175;-89
2021/12/18 04:14:35;;;;;;;27.23;19.40;;;4.00;99.90;;;;;;5016380;28;20211;-89
2021/12/18 04:17:03;;;;;;;27.57;18.60;;;4.00;99.90;;;;;;5015883;28;20174;-89
2021/12/18 04:19:29;;;;;;;31.87;20.27;;;4.00;99.90;;;;;;5015588;28;20210;-89
2021/12/18 04:21:55;;;;;;;32.40;20.63;;;4.00;99.90;;;;;;5016207;28;20185;-89
2021/12/18 04:24:21;;;;;;;31.83;20.83;;;4.00;99.90;;;;;;5015999;28;20277;-89
2021/12/18 04:26:47;;;;;;;29.87;19.00;;;4.00;99.90;;;;;;5015803;28;20179;-89
2021/12/18 04:29:12;;;;;;;29.73;19.33;;;4.00;99.90;;;;;;5015909;28;20210;-89
2021/12/18 04:31:39;;;;;;;28.53;19.73;;;4.00;99.90;;;;;;5015866;28;20190;-89
2021/12/18 04:34:06;;;;;;;31.90;19.50;;;4.00;99.90;;;;;;5015808;28;20186;-89
2021/12/18 04:36:33;;;;;;;28.67;18.57;;;3.90;99.90;;;;;;5015754;28;20221;-89
2021/12/18 04:39:03;;;;;;;27.63;18.50;;;4.00;99.90;;;;;;5015490;28;20204;-89
2021/12/18 04:41:42;;;;;;;28.30;18.93;;;4.00;99.90;;;;;;5032079;28;20190;-89
2021/12/18 04:44:08;;;;;;;29.17;19.17;;;3.90;99.90;;;;;;5015971;28;20218;-89
2021/12/18 04:46:34;;;;;;;28.73;18.77;;;3.90;99.90;;;;;;5006054;28;20221;-89
2021/12/18 04:49:00;;;;;;;30.73;19.53;;;3.90;99.90;;;;;;5028380;28;20215;-89
2021/12/18 04:51:26;;;;;;;28.90;19.00;;;3.90;99.90;;;;;;5028875;28;20179;-89
2021/12/18 04:53:52;;;;;;;28.20;18.53;;;3.90;99.90;;;;;;5028972;28;20587;-89
2021/12/18 04:56:18;;;;;;;28.60;18.67;;;3.90;99.90;;;;;;5020791;28;20179;-89
2021/12/18 04:58:44;;;;;;;29.30;18.63;;;3.90;99.90;;;;;;5015227;28;20654;-88
2021/12/18 05:01:21;;;;;;;30.87;18.97;;;3.90;99.90;;;;;;5015310;28;20178;-88
2021/12/18 05:03:49;;;;;;;27.23;17.37;;;3.90;99.90;;;;;;5015602;28;20192;-89
2021/12/18 05:06:16;;;;;;;26.97;18.13;;;3.90;99.90;;;;;;5016030;28;20186;-89
2021/12/18 05:08:42;;;;;;;27.77;17.73;;;3.90;99.90;;;;;;5015355;28;20706;-89
2021/12/18 05:11:08;;;;;;;27.73;17.83;;;3.90;99.90;;;;;;5014426;28;20550;-88
2021/12/18 05:13:34;;;;;;;29.97;19.17;;;3.90;99.90;;;;;;5015633;28;20182;-89
2021/12/18 05:16:00;;;;;;;28.83;17.93;;;3.90;99.90;;;;;;5016882;28;20178;-89
2021/12/18 05:18:26;;;;;;;28.53;17.67;;;3.90;99.90;;;;;;5019414;28;20179;-89
2021/12/18 05:20:52;;;;;;;29.37;18.07;;;3.90;99.90;;;;;;5019095;28;20202;-89
2021/12/18 05:23:18;;;;;;;26.97;17.07;;;3.80;99.90;;;;;;5018729;28;20198;-89
2021/12/18 05:25:44;;;;;;;28.30;17.27;;;3.80;99.90;;;;;;5019126;28;20250;-89
2021/12/18 05:28:10;;;;;;;29.97;18.33;;;3.80;99.90;;;;;;5019099;28;20289;-88
2021/12/18 05:30:36;;;;;;;32.03;18.07;;;3.70;99.90;;;;;;5018377;28;20194;-89
2021/12/18 05:33:02;;;;;;;28.13;17.27;;;3.70;99.90;;;;;;5018861;28;20594;-89
2021/12/18 05:35:30;;;;;;;29.87;18.17;;;3.70;99.90;;;;;;5035600;28;20213;-88
2021/12/18 05:38:04;;;;;;;29.10;18.53;;;3.70;99.90;;;;;;5018807;28;20183;-89
2021/12/18 05:40:32;;;;;;;28.43;17.60;;;3.70;99.90;;;;;;5018520;28;20693;-88
2021/12/18 05:42:58;;;;;;;27.77;17.00;;;3.60;99.90;;;;;;5018998;28;20179;-89
2021/12/18 05:45:24;;;;;;;28.83;17.40;;;3.60;99.90;;;;;;5018372;28;20185;-88
2021/12/18 05:47:50;;;;;;;26.23;15.90;;;3.60;99.90;;;;;;5018355;28;20247;-89
2021/12/18 05:50:19;;;;;;;30.80;18.00;;;3.60;99.90;;;;;;5018345;28;20226;-88
2021/12/18 05:52:46;;;;;;;29.57;17.23;;;3.60;99.90;;;;;;5018483;28;20178;-89
2021/12/18 05:55:15;;;;;;;29.67;17.43;;;3.50;99.90;;;;;;5018499;28;20175;-89
2021/12/18 05:57:44;;;;;;;28.87;17.53;;;3.60;99.90;;;;;;5018360;28;20179;-89
2021/12/18 06:00:29;;;;;;;26.53;15.67;;;3.60;99.90;;;;;;5018134;28;20639;-88
2021/12/18 06:02:55;;;;;;;25.90;15.77;;;3.60;99.90;;;;;;5018301;28;20194;-89
2021/12/18 06:05:21;;;;;;;28.57;16.90;;;3.50;99.90;;;;;;5018083;28;20179;-89
2021/12/18 06:07:57;;;;;;;25.97;15.57;;;3.50;99.90;;;;;;5018429;28;20213;-89
2021/12/18 06:10:28;;;;;;;25.97;15.77;;;3.50;99.90;;;;;;5018185;28;20731;-89
2021/12/18 06:12:55;;;;;;;71.37;37.50;;;3.50;99.90;;;;;;5018409;28;20179;-89
2021/12/18 06:15:20;;;;;;;34.17;19.47;;;3.30;99.90;;;;;;5017993;28;20175;-89
2021/12/18 06:17:46;;;;;;;26.37;15.70;;;3.30;99.90;;;;;;5018358;28;20194;-89
2021/12/18 06:20:12;;;;;;;26.83;17.07;;;3.30;99.90;;;;;;5017825;28;20198;-89
2021/12/18 06:22:38;;;;;;;26.53;15.70;;;3.10;99.90;;;;;;5017638;28;20236;-89
2021/12/18 06:25:05;;;;;;;24.63;15.00;;;3.00;99.90;;;;;;5017820;28;20182;-89
2021/12/18 06:27:31;;;;;;;26.30;14.77;;;3.00;99.90;;;;;;5016867;28;20228;-89
2021/12/18 06:30:25;;;;;;;27.73;15.70;;;2.90;99.90;;;;;;5017425;28;20190;-89
2021/12/18 06:32:51;;;;;;;29.37;16.70;;;2.80;99.90;;;;;;5017543;28;20175;-89
2021/12/18 06:35:17;;;;;;;28.43;16.23;;;2.70;99.90;;;;;;5017588;28;20181;-89
2021/12/18 06:37:43;;;;;;;28.53;15.83;;;2.70;99.90;;;;;;5017595;28;20179;-89
2021/12/18 06:40:09;;;;;;;28.50;16.23;;;2.70;99.90;;;;;;5017371;28;20202;-89
2021/12/18 06:42:35;;;;;;;28.60;16.33;;;2.80;99.90;;;;;;5017745;28;20181;-89
2021/12/18 06:45:04;;;;;;;35.93;19.20;;;2.90;99.90;;;;;;5017623;28;20182;-89
2021/12/18 06:47:30;;;;;;;27.93;16.53;;;2.90;99.90;;;;;;5014344;28;20225;-88
2021/12/18 06:50:18;;;;;;;32.33;19.30;;;2.90;99.90;;;;;;4997540;28;20199;-88
2021/12/18 06:52:44;;;;;;;27.40;16.40;;;2.90;99.90;;;;;;4998019;28;20186;-89
2021/12/18 06:55:10;;;;;;;33.73;19.43;;;2.90;99.90;;;;;;5014195;28;20176;-89
2021/12/18 06:57:36;;;;;;;28.03;16.43;;;2.90;99.90;;;;;;5015889;28;20183;-89
2021/12/18 07:00:06;;;;;;;28.67;16.73;;;2.80;99.90;;;;;;5014757;28;20207;-89
2021/12/18 07:02:34;;;;;;;28.50;15.90;;;2.80;99.90;;;;;;5034108;28;20269;-89
2021/12/18 07:05:00;;;;;;;28.13;16.80;;;2.80;99.90;;;;;;5017503;28;20654;-89
2021/12/18 07:07:26;;;;;;;28.33;16.47;;;2.80;99.90;;;;;;5016934;28;20190;-89
2021/12/18 07:09:52;;;;;;;26.37;15.60;;;2.70;99.90;;;;;;5016820;28;20281;-89
2021/12/18 07:12:18;;;;;;;32.13;16.40;;;2.80;99.90;;;;;;5017254;28;20273;-83
2021/12/18 07:14:44;;;;;;;29.57;16.13;;;2.80;99.90;;;;;;5033625;28;20186;-90
2021/12/18 07:17:10;;;;;;;27.27;15.93;;;2.90;99.90;;;;;;5013318;28;20183;-90
2021/12/18 07:19:36;;;;;;;29.23;15.40;;;2.90;99.90;;;;;;5029810;28;20207;-89
2021/12/18 07:22:02;;;;;;;28.87;16.27;;;2.90;99.90;;;;;;5016782;28;20206;-88
2021/12/18 07:24:47;;;;;;;30.33;17.30;;;3.00;99.90;;;;;;5016218;28;20187;-89
2021/12/18 07:27:13;;;;;;;27.20;15.90;;;3.00;99.90;;;;;;5017119;28;20210;-89
2021/12/18 07:29:39;;;;;;;28.40;15.93;;;3.00;99.90;;;;;;5017098;28;20229;-89
2021/12/18 07:32:06;;;;;;;28.63;16.00;;;3.00;99.90;;;;;;5016931;28;20178;-89
2021/12/18 07:34:32;;;;;;;26.93;15.83;;;2.90;99.90;;;;;;5016933;28;20175;-89
2021/12/18 07:36:58;;;;;;;26.83;15.83;;;2.90;99.90;;;;;;5017027;28;20192;-89
2021/12/18 07:39:24;;;;;;;28.00;15.50;;;2.90;99.90;;;;;;5016572;28;20293;-88
2021/12/18 07:41:50;;;;;;;27.60;14.67;;;2.90;99.90;;;;;;5016517;28;20281;-89
2021/12/18 07:44:17;;;;;;;24.77;15.30;;;2.90;99.90;;;;;;5033632;28;20182;-89
2021/12/18 07:46:43;;;;;;;26.07;15.13;;;2.90;99.90;;;;;;5016464;28;20244;-89
2021/12/18 07:49:09;;;;;;;27.20;16.00;;;2.90;99.90;;;;;;5016269;28;20240;-89
2021/12/18 07:51:36;;;;;;;24.80;14.37;;;2.90;99.90;;;;;;5016410;28;20190;-89
2021/12/18 07:54:02;;;;;;;26.47;15.50;;;2.90;99.90;;;;;;5013222;28;20199;-89
2021/12/18 07:56:33;;;;;;;30.70;16.50;;;2.90;99.90;;;;;;5029822;28;20176;-89
2021/12/18 07:59:02;;;;;;;24.77;14.37;;;2.90;99.90;;;;;;5017481;28;20207;-89
2021/12/18 08:01:28;;;;;;;26.67;15.10;;;2.90;99.90;;;;;;5013365;28;20694;-89
2021/12/18 08:03:54;;;;;;;26.80;16.13;;;2.60;99.90;;;;;;5032835;28;20200;-89
2021/12/18 08:06:20;;;;;;;28.10;15.67;;;2.40;99.90;;;;;;5033006;28;20178;-89
2021/12/18 08:08:47;;;;;;;34.27;20.27;;;2.40;99.90;;;;;;5016399;28;20216;-89
2021/12/18 08:11:13;;;;;;;34.83;16.67;;;2.20;99.90;;;;;;5016771;28;20181;-89
2021/12/18 08:13:39;;;;;;;31.63;16.60;;;2.20;99.90;;;;;;5016513;28;20265;-89
2021/12/18 08:16:09;;;;;;;31.60;17.43;;;2.10;99.90;;;;;;5025578;28;20266;-89
2021/12/18 08:18:35;;;;;;;28.13;15.63;;;2.10;99.90;;;;;;5025905;28;20265;-89
2021/12/18 08:21:01;;;;;;;34.23;18.70;;;2.20;99.90;;;;;;5016272;28;20261;-89
2021/12/18 08:23:27;;;;;;;29.53;15.73;;;2.10;99.90;;;;;;5032884;28;20236;-89
2021/12/18 08:26:00;;;;;;;29.43;15.33;;;2.10;99.90;;;;;;5029180;28;20199;-89
2021/12/18 08:29:10;;;;;;;31.30;17.07;;;2.10;99.90;;;;;;5031915;28;20265;-89
2021/12/18 08:31:42;;;;;;;28.80;15.77;;;2.10;99.90;;;;;;5009715;28;20170;-89
2021/12/18 08:34:27;;;;;;;28.00;15.70;;;2.30;99.90;;;;;;5033920;28;20528;-89
2021/12/18 08:37:00;;;;;;;28.03;15.40;;;2.40;99.90;;;;;;5009298;28;20187;-89
2021/12/18 08:39:32;;;;;;;28.57;16.10;;;2.40;99.90;;;;;;5012369;28;20249;-89
2021/12/18 08:42:05;;;;;;;26.57;15.70;;;2.50;99.90;;;;;;5012367;28;20199;-89
2021/12/18 08:44:33;;;;;;;28.00;15.27;;;2.60;99.90;;;;;;5012775;28;20175;-90
2021/12/18 08:47:02;;;;;;;26.57;14.73;;;2.70;99.90;;;;;;5012401;28;20199;-88
2021/12/18 08:49:28;;;;;;;28.00;15.70;;;2.70;99.90;;;;;;5023640;28;20284;-89
2021/12/18 08:51:56;;;;;;;28.07;15.80;;;2.60;99.90;;;;;;5018009;28;20163;-89
2021/12/18 08:54:23;;;;;;;26.40;14.53;;;2.50;99.90;;;;;;5019057;28;20159;-88
2021/12/18 08:56:50;;;;;;;28.20;15.63;;;2.40;99.90;;;;;;5018743;28;20171;-89
2021/12/18 08:59:16;;;;;;;28.27;15.27;;;2.50;99.90;;;;;;5015688;28;20207;-89
2021/12/18 09:01:45;;;;;;;26.57;16.00;;;2.50;99.90;;;;;;5015950;28;20191;-88
2021/12/18 09:04:11;;;;;;;28.20;15.07;;;2.60;99.90;;;;;;5016165;28;20194;-89
2021/12/18 09:06:41;;;;;;;25.80;13.87;;;2.50;99.90;;;;;;5045273;28;20170;-89
2021/12/18 09:09:10;;;;;;;24.30;14.70;;;2.50;99.90;;;;;;5037935;28;20186;-89
2021/12/18 09:11:44;;;;;;;24.33;14.37;;;2.50;99.90;;;;;;5046556;28;20238;-89
2021/12/18 09:14:10;;;;;;;26.23;14.90;;;2.50;99.90;;;;;;5016880;28;20179;-89
2021/12/18 09:16:36;;;;;;;27.77;15.27;;;2.50;99.90;;;;;;5029079;28;20278;-86
2021/12/18 09:19:02;;;;;;;26.53;14.67;;;2.60;99.90;;;;;;5020312;28;20282;-89
2021/12/18 09:21:29;;;;;;;24.77;14.00;;;2.60;99.90;;;;;;5036461;28;20185;-89
2021/12/18 09:23:55;;;;;;;27.90;15.17;;;2.60;99.90;;;;;;5005944;28;20192;-90
2021/12/18 09:26:23;;;;;;;27.73;14.67;;;2.50;99.90;;;;;;5024754;28;20173;-89
2021/12/18 09:28:49;;;;;;;24.90;14.50;;;2.60;99.90;;;;;;5040202;28;20214;-88
2021/12/18 09:31:16;;;;;;;25.53;14.73;;;2.50;99.90;;;;;;5023108;28;20266;-88
2021/12/18 09:33:45;;;;;;;26.20;15.20;;;2.50;99.90;;;;;;5016722;28;20545;-88
2021/12/18 09:36:12;;;;;;;25.43;14.53;;;2.50;99.90;;;;;;5018727;28;20191;-87
2021/12/18 09:38:38;;;;;;;27.10;14.30;;;2.50;99.90;;;;;;5015105;28;20183;-87
2021/12/18 09:41:06;;;;;;;28.30;14.57;;;2.60;99.90;;;;;;5024752;28;20197;-87
2021/12/18 09:43:34;;;;;;;27.77;15.27;;;2.60;99.90;;;;;;5032039;28;20182;-88
2021/12/18 09:46:04;;;;;;;27.53;15.70;;;2.70;99.90;;;;;;5019912;28;20185;-88
2021/12/18 09:48:33;;;;;;;28.93;15.97;;;2.70;99.90;;;;;;5018143;28;20199;-88
2021/12/18 09:51:08;;;;;;;25.97;14.90;;;2.80;99.90;;;;;;5016872;28;20191;-87
2021/12/18 09:53:36;;;;;;;23.97;14.50;;;2.80;99.90;;;;;;5014729;28;20182;-87
2021/12/18 09:56:17;;;;;;;27.20;15.27;;;2.90;99.90;;;;;;5017146;28;20329;-88
2021/12/18 09:58:45;;;;;;;25.27;15.20;;;2.90;99.90;;;;;;5018838;28;20221;-87
2021/12/18 10:01:13;;;;;;;25.67;14.80;;;2.90;99.90;;;;;;5016435;28;20189;-87
2021/12/18 10:03:51;;;;;;;26.47;14.87;;;2.80;99.90;;;;;;5033652;28;20190;-87
2021/12/18 10:06:36;;;;;;;27.00;15.07;;;2.70;99.90;;;;;;5017960;28;20182;-87
2021/12/18 10:09:10;;;;;;;32.70;20.37;;;2.70;99.90;;;;;;5034015;28;20214;-87
2021/12/18 10:11:48;;;;;;;25.30;15.07;;;2.80;99.90;;;;;;5017865;28;20229;-88
2021/12/18 10:14:16;;;;;;;25.93;14.13;;;2.80;99.90;;;;;;5017533;28;20182;-87
2021/12/18 10:16:46;;;;;;;25.13;14.03;;;2.80;99.90;;;;;;5018593;28;20179;-87
2021/12/18 10:19:30;;;;;;;26.37;14.77;;;2.90;99.90;;;;;;5017202;28;20256;-86
2021/12/18 10:21:57;;;;;;;27.47;17.00;;;2.90;99.90;;;;;;5026793;28;20539;-87
2021/12/18 10:24:24;;;;;;;27.60;14.30;;;3.00;99.90;;;;;;5015000;28;20194;-87
2021/12/18 10:26:55;;;;;;;25.37;12.80;;;3.00;99.90;;;;;;5035455;28;20202;-89
2021/12/18 10:29:36;;;;;;;24.13;14.23;;;3.00;99.90;;;;;;5033549;28;20210;-87
2021/12/18 10:32:06;;;;;;;23.43;13.83;;;3.10;99.90;;;;;;5062781;28;20209;-89
2021/12/18 10:34:33;;;;;;;25.87;14.33;;;3.10;99.90;;;;;;5016034;28;20187;-87
2021/12/18 10:37:20;;;;;;;34.23;20.97;;;3.10;99.90;;;;;;5017623;28;20631;-87
2021/12/18 10:39:56;;;;;;;23.63;13.93;;;3.10;99.90;;;;;;5033473;28;20229;-86
2021/12/18 10:42:33;;;;;;;22.20;13.63;;;3.10;99.90;;;;;;5031782;28;20190;-87
2021/12/18 10:45:22;;;;;;;26.83;15.53;;;3.10;99.90;;;;;;5026866;28;20221;-87
2021/12/18 10:48:01;;;;;;;24.47;14.17;;;3.10;99.90;;;;;;5017030;28;20213;-87
2021/12/18 10:51:02;;;;;;;24.33;13.53;;;3.20;99.90;;;;;;5012930;28;20278;-87
2021/12/18 10:53:32;;;;;;;24.07;13.63;;;3.20;99.90;;;;;;5016618;28;20166;-87
2021/12/18 10:56:01;;;;;;;23.70;13.77;;;3.20;99.90;;;;;;5013112;28;20184;-87
2021/12/18 10:58:38;;;;;;;28.03;17.60;;;3.20;99.90;;;;;;5033493;28;20178;-87
2021/12/18 11:01:11;;;;;;;28.73;16.80;;;3.10;99.90;;;;;;5025269;28;20183;-87
2021/12/18 11:03:54;;;;;;;23.67;13.63;;;3.20;99.90;;;;;;5017165;28;20175;-88
2021/12/18 11:06:28;;;;;;;24.23;14.83;;;3.20;99.90;;;;;;4999958;28;20517;-88
2021/12/18 11:09:14;;;;;;;24.23;14.50;;;3.10;99.90;;;;;;5013134;28;20206;-88
2021/12/18 11:14:36;;;;;;;24.03;14.30;;;3.10;99.90;;;;;;5014077;28;20229;-88
2021/12/18 11:17:16;;;;;;;24.17;14.43;;;3.20;99.90;;;;;;5031863;28;20273;-88
2021/12/18 11:19:45;;;;;;;23.13;14.63;;;3.30;99.90;;;;;;5031661;28;20202;-77
2021/12/18 11:22:16;;;;;;;24.60;15.33;;;3.30;99.90;;;;;;5015980;28;20183;-90
2021/12/18 11:25:09;;;;;;;23.07;13.93;;;3.40;99.90;;;;;;5030608;28;20183;-88
2021/12/18 11:28:00;;;;;;;23.30;14.67;;;3.40;99.90;;;;;;5011463;28;20195;-88
2021/12/18 11:30:28;;;;;;;22.63;13.47;;;3.40;99.90;;;;;;5032638;28;20225;-89
2021/12/18 11:32:55;;;;;;;24.93;14.07;;;3.40;99.90;;;;;;5024346;28;20154;-88
2021/12/18 11:35:23;;;;;;;21.60;13.37;;;3.40;99.90;;;;;;5032453;28;20186;-88
2021/12/18 11:38:07;;;;;;;22.40;13.80;;;3.40;99.90;;;;;;5024595;28;20239;-89
2021/12/18 11:40:41;;;;;;;20.67;12.97;;;3.30;99.90;;;;;;5015199;28;20283;-88
2021/12/18 11:43:36;;;;;;;22.70;12.50;;;3.30;99.90;;;;;;5029237;28;20316;-88
2021/12/18 11:46:41;;;;;;;21.23;12.93;;;3.40;99.90;;;;;;5048567;28;20643;-88
2021/12/18 11:49:43;;;;;;;22.00;13.50;;;3.40;99.90;;;;;;4994043;28;20249;-88
2021/12/18 11:52:09;;;;;;;19.30;13.10;;;3.40;99.90;;;;;;4994780;28;20203;-88
2021/12/18 11:54:57;;;;;;;22.10;13.43;;;3.40;99.90;;;;;;5006236;28;20194;-88
2021/12/18 11:57:50;;;;;;;22.67;13.57;;;3.30;99.90;;;;;;5012140;28;20183;-88
2021/12/18 12:00:51;;;;;;;19.73;12.63;;;3.40;99.90;;;;;;5011646;28;20202;-88
2021/12/18 12:03:36;;;;;;;20.40;12.73;;;3.40;99.90;;;;;;5012239;28;20270;-88
2021/12/18 12:06:19;;;;;;;19.50;12.13;;;3.50;99.90;;;;;;5011964;28;20280;-88
2021/12/18 12:08:46;;;;;;;19.07;12.27;;;3.40;99.90;;;;;;5011784;28;20211;-88
2021/12/18 12:11:28;;;;;;;21.47;13.17;;;3.50;99.90;;;;;;5012011;28;20175;-88
2021/12/18 12:14:13;;;;;;;17.77;11.93;;;3.50;99.90;;;;;;5011756;28;20183;-88
2021/12/18 12:16:45;;;;;;;18.43;12.00;;;3.60;99.90;;;;;;5022265;28;20194;-87
2021/12/18 12:19:12;;;;;;;17.40;11.63;;;3.60;99.90;;;;;;5014725;28;20207;-88
2021/12/18 12:21:41;;;;;;;18.03;11.20;;;3.60;99.90;;;;;;5014860;28;20179;-90
2021/12/18 12:24:09;;;;;;;19.13;12.33;;;3.70;99.90;;;;;;5015433;28;20179;-88
2021/12/18 12:26:35;;;;;;;16.37;11.13;;;3.60;99.90;;;;;;5016780;28;20193;-88
2021/12/18 12:29:03;;;;;;;18.57;12.17;;;3.60;99.90;;;;;;5017902;28;20218;-88
2021/12/18 12:31:29;;;;;;;16.70;10.97;;;3.60;99.90;;;;;;5018506;28;20183;-88
2021/12/18 12:34:21;;;;;;;17.27;10.47;;;3.60;99.90;;;;;;5014913;28;20185;-88
2021/12/18 12:36:48;;;;;;;16.93;10.23;;;3.70;99.90;;;;;;5015047;28;20210;-88
2021/12/18 12:39:15;;;;;;;16.13;10.40;;;3.70;99.90;;;;;;5013808;28;20313;-88
2021/12/18 12:41:50;;;;;;;12.43;9.13;;;3.80;99.90;;;;;;4989457;28;1234954;-88
2021/12/18 12:44:31;;;;;;;14.07;9.37;;;3.80;99.90;;;;;;5035624;28;20182;-89
2021/12/18 12:47:15;;;;;;;17.67;11.70;;;3.80;99.90;;;;;;5006538;28;20187;-87
2021/12/18 12:49:42;;;;;;;15.57;10.03;;;3.70;99.90;;;;;;5017670;28;20211;-88
2021/12/18 12:52:19;;;;;;;15.97;10.67;;;3.70;99.90;;;;;;5018990;28;20184;-88
2021/12/18 12:54:52;;;;;;;13.67;9.30;;;3.80;99.90;;;;;;5019652;28;20623;-88
2021/12/18 12:57:27;;;;;;;13.77;9.23;;;3.90;99.90;;;;;;5019512;28;20174;-87
2021/12/18 13:00:15;;;;;;;20.57;13.10;;;3.90;99.90;;;;;;5018558;28;20262;-88
2021/12/18 13:03:22;;;;;;;12.47;8.53;;;3.80;99.90;;;;;;5018755;28;20178;-88
2021/12/18 13:06:27;;;;;;;11.13;8.30;;;3.90;99.90;;;;;;5019180;28;20170;-88
2021/12/18 13:08:53;;;;;;;13.23;8.50;;;3.80;99.90;;;;;;5018644;28;20207;-88
2021/12/18 13:11:23;;;;;;;17.47;8.70;;;3.90;99.90;;;;;;5018987;28;20183;-88
2021/12/18 13:13:50;;;;;;;14.57;8.93;;;3.80;99.90;;;;;;5018892;28;20271;-88
2021/12/18 13:16:20;;;;;;;13.20;9.00;;;3.60;99.90;;;;;;5018693;28;20304;-87
2021/12/18 13:18:58;;;;;;;11.40;8.33;;;3.50;99.90;;;;;;5018573;28;20262;-88
2021/12/18 13:21:35;;;;;;;12.13;8.17;;;3.30;99.90;;;;;;5019039;28;20175;-87
2021/12/18 13:24:07;;;;;;;12.33;8.13;;;3.30;99.90;;;;;;5018763;28;20239;-87
2021/12/18 13:26:33;;;;;;;14.73;9.63;;;3.40;99.90;;;;;;5018961;28;20175;-88
2021/12/18 13:29:06;;;;;;;15.47;9.10;;;3.40;99.90;;;;;;5018504;28;20218;-88
2021/12/18 13:31:35;;;;;;;10.67;8.57;;;3.40;99.90;;;;;;5018761;28;20182;-87
2021/12/18 13:34:05;;;;;;;11.03;7.83;;;3.50;99.90;;;;;;5018823;28;20171;-87
2021/12/18 13:36:45;;;;;;;12.67;7.97;;;3.50;99.90;;;;;;5018317;28;20175;-87
2021/12/18 13:39:25;;;;;;;12.77;8.80;;;3.50;99.90;;;;;;5017701;28;20234;-87
2021/12/18 13:42:28;;;;;;;16.47;10.47;;;3.60;99.90;;;;;;5018330;28;20195;-87
2021/12/18 13:45:00;;;;;;;12.83;8.27;;;3.80;99.90;;;;;;4961370;28;20267;-88